createdAt,value
2018-07-26T00:00:33.251Z,24.10
2018-07-26T00:03:02.612Z,24.10
2018-07-26T00:05:32.820Z,24.20
2018-07-26T00:08:02.012Z,24.10
2018-07-26T00:10:31.411Z,24.00
2018-07-26T00:13:00.663Z,24.00
2018-07-26T00:15:29.983Z,23.90
2018-07-26T00:17:59.260Z,23.90
2018-07-26T00:20:28.571Z,23.90
2018-07-26T00:22:57.830Z,23.80
2018-07-26T00:25:27.198Z,23.70
2018-07-26T00:27:56.555Z,23.70
2018-07-26T00:30:25.992Z,23.60
2018-07-26T00:32:55.281Z,23.50
2018-07-26T00:35:24.665Z,23.60
2018-07-26T00:37:53.992Z,23.50
2018-07-26T00:40:23.351Z,23.50
2018-07-26T00:42:52.618Z,23.40
2018-07-26T00:45:21.861Z,23.40
2018-07-26T00:47:51.122Z,23.40
2018-07-26T00:50:20.418Z,23.40
2018-07-26T00:52:49.654Z,23.40
2018-07-26T00:55:18.860Z,23.40
2018-07-26T00:57:48.229Z,23.30
2018-07-26T01:00:17.570Z,23.30
2018-07-26T01:02:46.753Z,23.20
2018-07-26T01:05:15.929Z,23.20
2018-07-26T01:07:45.221Z,23.20
2018-07-26T01:10:14.384Z,23.10
2018-07-26T01:12:43.638Z,23.10
2018-07-26T01:15:12.908Z,23.10
2018-07-26T01:17:42.270Z,23.10
2018-07-26T01:20:11.597Z,23.10
2018-07-26T01:22:40.897Z,23.00
2018-07-26T01:25:10.181Z,22.90
2018-07-26T01:27:45.514Z,22.90
2018-07-26T01:30:14.797Z,22.90
2018-07-26T01:32:44.019Z,22.90
2018-07-26T01:35:13.100Z,22.80
2018-07-26T01:37:42.324Z,22.80
2018-07-26T01:42:50.829Z,22.80
2018-07-26T01:45:19.891Z,22.80
2018-07-26T01:47:49.038Z,22.80
2018-07-26T01:50:18.269Z,22.80
2018-07-26T01:52:47.460Z,22.80
2018-07-26T01:55:16.562Z,22.80
2018-07-26T01:57:45.711Z,22.80
2018-07-26T02:00:15.399Z,22.80
2018-07-26T02:02:44.660Z,22.70
2018-07-26T02:05:13.958Z,22.70
2018-07-26T02:07:42.937Z,22.60
2018-07-26T02:10:12.069Z,22.60
2018-07-26T02:12:41.376Z,22.60
2018-07-26T02:15:10.474Z,22.50
2018-07-26T02:17:39.699Z,22.50
2018-07-26T02:20:08.901Z,22.40
2018-07-26T02:22:38.181Z,22.40
2018-07-26T02:25:08.208Z,22.50
2018-07-26T02:27:37.831Z,22.40
2018-07-26T02:30:06.892Z,22.40
2018-07-26T02:32:36.032Z,22.40
2018-07-26T02:35:05.289Z,22.40
2018-07-26T02:37:34.295Z,22.30
2018-07-26T02:40:03.503Z,22.30
2018-07-26T02:42:32.493Z,22.20
2018-07-26T02:45:01.681Z,22.10
2018-07-26T02:47:30.874Z,22.10
2018-07-26T02:49:59.832Z,22.10
2018-07-26T02:52:28.954Z,22.10
2018-07-26T02:54:58.228Z,22.10
2018-07-26T02:57:27.426Z,22.10
2018-07-26T02:59:56.403Z,22.10
2018-07-26T03:02:25.736Z,22.10
2018-07-26T03:04:54.878Z,22.10
2018-07-26T03:07:23.919Z,22.10
2018-07-26T03:09:52.997Z,22.10
2018-07-26T03:12:22.132Z,21.90
2018-07-26T03:14:51.094Z,21.90
2018-07-26T03:17:20.059Z,21.90
2018-07-26T03:19:49.199Z,21.80
2018-07-26T03:22:24.698Z,21.80
2018-07-26T03:24:53.740Z,21.80
2018-07-26T03:27:22.897Z,21.80
2018-07-26T03:29:51.892Z,21.80
2018-07-26T03:32:20.913Z,21.80
2018-07-26T03:34:50.168Z,21.70
2018-07-26T03:37:19.208Z,21.80
2018-07-26T03:39:48.186Z,21.80
2018-07-26T03:42:17.190Z,21.80
2018-07-26T03:44:47.048Z,21.90
2018-07-26T03:47:16.040Z,21.90
2018-07-26T03:49:45.016Z,21.90
2018-07-26T03:52:14.368Z,21.80
2018-07-26T03:54:43.501Z,21.80
2018-07-26T03:57:12.499Z,21.70
2018-07-26T03:59:41.671Z,21.70
2018-07-26T04:02:11.386Z,21.70
2018-07-26T04:04:40.387Z,21.70
2018-07-26T04:07:09.642Z,21.70
2018-07-26T04:09:38.660Z,21.70
2018-07-26T04:12:07.832Z,21.70
2018-07-26T04:14:36.854Z,21.70
2018-07-26T04:17:05.859Z,21.70
2018-07-26T04:19:34.959Z,21.70
2018-07-26T04:22:04.157Z,21.80
2018-07-26T04:24:33.142Z,21.80
2018-07-26T04:27:02.359Z,21.90
2018-07-26T04:29:31.369Z,22.00
2018-07-26T04:32:00.640Z,22.10
2018-07-26T04:34:29.861Z,22.20
2018-07-26T04:36:58.960Z,22.20
2018-07-26T04:39:28.200Z,22.30
2018-07-26T04:41:57.570Z,22.30
2018-07-26T04:44:27.458Z,22.30
2018-07-26T04:46:56.454Z,22.40
2018-07-26T04:49:25.629Z,22.40
2018-07-26T04:51:54.718Z,22.40
2018-07-26T04:54:24.647Z,22.40
2018-07-26T04:56:53.936Z,22.50
2018-07-26T04:59:23.281Z,22.40
2018-07-26T05:01:52.688Z,22.40
2018-07-26T05:04:21.932Z,22.50
2018-07-26T05:06:51.318Z,22.50
2018-07-26T05:09:20.736Z,22.50
2018-07-26T05:11:49.950Z,22.60
2018-07-26T05:14:19.151Z,22.60
2018-07-26T05:16:48.472Z,22.70
2018-07-26T05:19:17.844Z,22.70
2018-07-26T05:21:47.016Z,22.70
2018-07-26T05:24:16.523Z,22.80
2018-07-26T05:26:45.932Z,22.80
2018-07-26T05:29:15.349Z,22.80
2018-07-26T05:31:44.716Z,22.90
2018-07-26T05:34:13.874Z,22.90
2018-07-26T05:36:43.172Z,22.90
2018-07-26T05:39:12.720Z,22.80
2018-07-26T05:41:42.256Z,22.90
2018-07-26T05:44:11.495Z,22.90
2018-07-26T05:46:40.624Z,23.00
2018-07-26T05:49:09.880Z,23.00
2018-07-26T05:51:39.108Z,23.00
2018-07-26T05:54:08.717Z,23.00
2018-07-26T05:56:38.804Z,23.10
2018-07-26T05:59:07.924Z,23.20
2018-07-26T06:01:36.971Z,23.20
2018-07-26T06:04:06.441Z,23.30
2018-07-26T06:06:35.954Z,23.30
2018-07-26T06:09:08.925Z,23.40
2018-07-26T06:11:38.359Z,23.40
2018-07-26T06:14:07.815Z,23.50
2018-07-26T06:16:37.001Z,23.50
2018-07-26T06:19:06.362Z,23.60
2018-07-26T06:21:35.715Z,23.60
2018-07-26T06:24:04.892Z,23.70
2018-07-26T06:26:34.196Z,23.70
2018-07-26T06:29:03.426Z,23.70
2018-07-26T06:31:32.692Z,23.80
2018-07-26T06:34:02.400Z,23.80
2018-07-26T06:36:31.706Z,23.80
2018-07-26T06:39:00.923Z,23.90
2018-07-26T06:41:30.392Z,24.00
2018-07-26T06:44:00.313Z,24.10
2018-07-26T06:46:29.392Z,24.20
2018-07-26T06:48:58.714Z,24.30
2018-07-26T06:51:27.962Z,24.40
2018-07-26T06:53:57.513Z,24.40
2018-07-26T06:56:26.841Z,24.60
2018-07-26T06:58:56.259Z,24.70
2018-07-26T07:01:25.733Z,24.80
2018-07-26T07:03:55.126Z,24.90
2018-07-26T07:06:24.652Z,25.20
2018-07-26T07:08:54.004Z,25.30
2018-07-26T07:11:23.561Z,25.30
2018-07-26T07:13:53.051Z,25.30
2018-07-26T07:16:22.560Z,25.50
2018-07-26T07:18:52.060Z,25.50
2018-07-26T07:21:21.320Z,25.50
2018-07-26T07:23:50.565Z,25.60
2018-07-26T07:26:20.059Z,25.60
2018-07-26T07:28:50.808Z,25.60
2018-07-26T07:31:20.185Z,25.70
2018-07-26T07:33:49.764Z,25.80
2018-07-26T07:36:19.298Z,25.80
2018-07-26T07:38:48.921Z,26.00
2018-07-26T07:41:18.672Z,26.10
2018-07-26T07:43:48.222Z,26.20
2018-07-26T07:46:17.540Z,26.30
2018-07-26T07:48:46.554Z,26.40
2018-07-26T07:51:15.700Z,26.40
2018-07-26T07:53:44.821Z,26.50
2018-07-26T07:56:14.075Z,26.60
2018-07-26T07:58:43.274Z,26.70
2018-07-26T08:01:12.853Z,26.70
2018-07-26T08:03:42.240Z,26.80
2018-07-26T08:06:11.666Z,26.90
2018-07-26T08:08:40.986Z,27.00
2018-07-26T08:11:10.342Z,27.10
2018-07-26T08:13:39.833Z,27.20
2018-07-26T08:16:09.167Z,27.40
2018-07-26T08:18:38.674Z,27.50
2018-07-26T08:21:08.079Z,27.50
2018-07-26T08:23:37.278Z,27.70
2018-07-26T08:26:06.701Z,27.80
2018-07-26T08:28:35.984Z,27.90
2018-07-26T08:31:05.808Z,28.00
2018-07-26T08:36:04.066Z,28.30
2018-07-26T08:38:33.112Z,28.40
2018-07-26T08:41:02.900Z,28.50
2018-07-26T08:43:32.173Z,28.60
2018-07-26T08:46:01.769Z,28.80
2018-07-26T08:48:31.098Z,29.00
2018-07-26T08:51:01.292Z,29.20
2018-07-26T08:53:30.833Z,29.20
2018-07-26T08:56:00.162Z,29.40
2018-07-26T08:58:29.953Z,29.50
2018-07-26T09:03:28.157Z,29.80
2018-07-26T09:05:57.584Z,30.00
2018-07-26T09:08:26.988Z,30.00
2018-07-26T09:10:56.548Z,30.20
2018-07-26T09:13:25.947Z,30.40
2018-07-26T09:15:55.288Z,30.50
2018-07-26T09:18:24.757Z,30.50
2018-07-26T09:20:54.198Z,30.60
2018-07-26T09:23:23.414Z,30.80
2018-07-26T09:25:52.779Z,30.90
2018-07-26T09:28:22.091Z,31.10
2018-07-26T09:30:51.523Z,31.30
2018-07-26T09:33:21.136Z,31.40
2018-07-26T09:35:50.543Z,31.60
2018-07-26T09:38:20.025Z,31.80
2018-07-26T09:40:49.591Z,32.00
2018-07-26T09:43:19.191Z,32.10
2018-07-26T09:45:48.846Z,32.20
2018-07-26T09:48:18.583Z,32.40
2018-07-26T09:50:47.913Z,32.60
2018-07-26T09:53:17.280Z,32.90
2018-07-26T09:55:46.839Z,33.10
2018-07-26T09:58:16.172Z,33.20
2018-07-26T10:00:51.127Z,33.50
2018-07-26T10:03:20.429Z,33.60
2018-07-26T10:05:50.076Z,33.70
2018-07-26T10:08:19.579Z,34.00
2018-07-26T10:10:49.151Z,34.10
2018-07-26T10:13:18.653Z,34.10
2018-07-26T10:15:48.321Z,34.10
2018-07-26T10:18:17.843Z,34.40
2018-07-26T10:20:47.350Z,34.60
2018-07-26T10:23:17.022Z,34.90
2018-07-26T10:25:46.641Z,35.30
2018-07-26T10:28:17.163Z,35.50
2018-07-26T10:30:46.521Z,35.70
2018-07-26T10:33:16.184Z,35.80
2018-07-26T10:35:45.553Z,36.10
2018-07-26T10:38:15.315Z,36.10
2018-07-26T10:40:44.918Z,36.40
2018-07-26T10:43:14.715Z,36.70
2018-07-26T10:45:44.240Z,37.10
2018-07-26T10:48:13.942Z,37.20
2018-07-26T10:50:43.327Z,37.40
2018-07-26T10:53:12.912Z,37.50
2018-07-26T10:55:42.216Z,37.60
2018-07-26T10:58:11.616Z,37.50
2018-07-26T11:00:40.878Z,37.70
2018-07-26T11:03:10.337Z,38.00
2018-07-26T11:05:39.674Z,38.30
2018-07-26T11:08:09.205Z,38.40
2018-07-26T11:10:38.415Z,38.60
2018-07-26T11:13:07.738Z,38.90
2018-07-26T11:15:37.728Z,39.10
2018-07-26T11:18:07.008Z,39.20
2018-07-26T11:20:36.246Z,39.30
2018-07-26T11:23:05.580Z,39.50
2018-07-26T11:25:35.105Z,39.60
2018-07-26T11:28:04.678Z,39.70
2018-07-26T11:30:34.312Z,39.00
2018-07-26T11:33:03.678Z,38.10
2018-07-26T11:35:33.400Z,37.60
2018-07-26T11:38:02.870Z,37.40
2018-07-26T11:40:32.326Z,38.00
2018-07-26T11:43:01.882Z,38.80
2018-07-26T11:45:31.193Z,39.10
2018-07-26T11:48:00.530Z,39.50
2018-07-26T11:50:29.936Z,40.00
2018-07-26T11:52:59.586Z,39.80
2018-07-26T11:55:29.319Z,39.70
2018-07-26T11:57:58.734Z,40.20
2018-07-26T12:00:28.234Z,40.60
2018-07-26T12:02:57.528Z,40.80
2018-07-26T12:05:27.314Z,41.20
2018-07-26T12:07:56.947Z,41.60
2018-07-26T12:10:26.288Z,42.20
2018-07-26T12:12:55.958Z,42.70
2018-07-26T12:15:25.513Z,43.10
2018-07-26T12:17:54.932Z,43.40
2018-07-26T12:20:24.409Z,43.30
2018-07-26T12:22:53.901Z,43.10
2018-07-26T12:25:23.445Z,43.30
2018-07-26T12:27:52.631Z,43.70
2018-07-26T12:30:22.160Z,43.60
2018-07-26T12:32:51.572Z,43.40
2018-07-26T12:35:20.986Z,43.10
2018-07-26T12:37:50.589Z,43.30
2018-07-26T12:40:19.991Z,43.40
2018-07-26T12:42:49.493Z,43.50
2018-07-26T12:45:18.817Z,43.40
2018-07-26T12:47:48.292Z,43.50
2018-07-26T12:50:17.733Z,43.70
2018-07-26T12:52:47.743Z,43.90
2018-07-26T12:55:17.181Z,44.00
2018-07-26T13:00:16.329Z,44.40
2018-07-26T13:02:45.682Z,44.40
2018-07-26T13:05:14.888Z,45.10
2018-07-26T13:07:44.193Z,45.90
2018-07-26T13:10:13.848Z,46.60
2018-07-26T13:12:45.390Z,46.50
2018-07-26T13:15:14.933Z,46.70
2018-07-26T13:17:44.525Z,46.80
2018-07-26T13:20:14.207Z,47.00
2018-07-26T13:22:43.772Z,47.10
2018-07-26T13:25:13.510Z,46.60
2018-07-26T13:27:43.009Z,46.40
2018-07-26T13:30:12.536Z,45.10
2018-07-26T13:32:41.936Z,43.60
2018-07-26T13:35:11.223Z,42.60
2018-07-26T13:37:40.339Z,41.50
2018-07-26T13:40:09.681Z,40.30
2018-07-26T13:45:08.856Z,39.00
2018-07-26T13:47:38.526Z,38.70
2018-07-26T13:50:07.992Z,38.50
2018-07-26T13:52:37.338Z,39.80
2018-07-26T13:55:07.270Z,41.40
2018-07-26T13:57:36.755Z,42.80
2018-07-26T14:00:06.801Z,44.30
2018-07-26T14:02:36.107Z,45.30
2018-07-26T14:05:05.677Z,45.40
2018-07-26T14:07:35.217Z,44.40
2018-07-26T14:10:05.658Z,43.10
2018-07-26T14:12:34.900Z,42.10
2018-07-26T14:15:04.482Z,41.40
2018-07-26T14:17:33.857Z,41.10
2018-07-26T14:20:03.067Z,40.50
2018-07-26T14:22:32.263Z,40.60
2018-07-26T14:25:01.794Z,40.80
2018-07-26T14:27:31.173Z,40.00
2018-07-26T14:30:00.598Z,39.30
2018-07-26T14:32:29.688Z,38.60
2018-07-26T14:34:58.750Z,38.30
2018-07-26T14:37:28.678Z,38.20
2018-07-26T14:39:58.016Z,38.10
2018-07-26T14:42:27.604Z,38.10
2018-07-26T14:44:56.941Z,38.00
2018-07-26T14:47:26.134Z,37.90
2018-07-26T14:49:55.202Z,37.90
2018-07-26T14:52:24.726Z,37.80
2018-07-26T14:54:54.179Z,37.70
2018-07-26T14:57:23.727Z,37.80
2018-07-26T14:59:53.143Z,37.80
2018-07-26T15:02:22.689Z,37.80
2018-07-26T15:04:51.865Z,37.90
2018-07-26T15:07:22.011Z,38.00
2018-07-26T15:09:51.247Z,38.20
2018-07-26T15:12:20.578Z,38.30
2018-07-26T15:14:49.757Z,38.50
2018-07-26T15:17:18.995Z,38.50
2018-07-26T15:19:48.403Z,39.00
2018-07-26T15:22:17.696Z,40.30
2018-07-26T15:24:47.665Z,42.80
2018-07-26T15:27:16.638Z,45.10
2018-07-26T15:29:46.186Z,47.00
2018-07-26T15:32:15.433Z,48.60
2018-07-26T15:34:44.402Z,49.60
2018-07-26T15:37:13.757Z,50.00
2018-07-26T15:39:43.185Z,50.80
2018-07-26T15:42:12.394Z,50.60
2018-07-26T15:44:41.698Z,50.20
2018-07-26T15:47:10.830Z,50.30
2018-07-26T15:49:40.070Z,50.20
2018-07-26T15:52:09.342Z,49.60
2018-07-26T15:54:38.584Z,48.30
2018-07-26T15:57:08.182Z,47.80
2018-07-26T15:59:37.522Z,47.60
2018-07-26T16:02:07.073Z,47.30
2018-07-26T16:04:36.272Z,46.50
2018-07-26T16:07:05.719Z,46.30
2018-07-26T16:09:34.961Z,46.30
2018-07-26T16:12:04.062Z,45.80
2018-07-26T16:14:33.321Z,45.40
2018-07-26T16:17:02.570Z,45.10
2018-07-26T16:19:31.585Z,44.50
2018-07-26T16:22:00.980Z,44.10
2018-07-26T16:24:30.177Z,43.50
2018-07-26T16:26:59.188Z,42.00
2018-07-26T16:29:28.283Z,41.20
2018-07-26T16:31:57.482Z,40.80
2018-07-26T16:34:26.544Z,40.60
2018-07-26T16:36:55.610Z,40.50
2018-07-26T16:39:24.579Z,40.50
2018-07-26T16:44:22.431Z,40.30
2018-07-26T16:46:51.625Z,40.30
2018-07-26T16:49:20.837Z,39.80
2018-07-26T16:51:52.546Z,39.00
2018-07-26T16:54:21.500Z,38.00
2018-07-26T16:56:50.601Z,37.30
2018-07-26T16:59:19.650Z,36.60
2018-07-26T17:01:48.821Z,36.00
2018-07-26T17:04:17.844Z,35.50
2018-07-26T17:06:46.942Z,35.10
2018-07-26T17:09:16.046Z,34.70
2018-07-26T17:11:45.816Z,34.30
2018-07-26T17:14:15.059Z,34.00
2018-07-26T17:16:44.183Z,33.90
2018-07-26T17:19:13.200Z,33.70
2018-07-26T17:21:42.373Z,33.70
2018-07-26T17:24:11.428Z,33.70
2018-07-26T17:26:40.600Z,33.60
2018-07-26T17:29:09.675Z,33.50
2018-07-26T17:31:38.787Z,33.30
2018-07-26T17:34:07.841Z,33.20
2018-07-26T17:36:36.843Z,33.00
2018-07-26T17:39:08.669Z,32.90
2018-07-26T17:41:37.795Z,32.80
2018-07-26T17:44:06.959Z,32.70
2018-07-26T17:46:36.278Z,32.70
2018-07-26T17:49:05.699Z,32.60
2018-07-26T17:51:34.722Z,32.60
2018-07-26T17:54:03.677Z,32.60
2018-07-26T17:56:33.112Z,32.60
2018-07-26T17:59:02.246Z,32.60
2018-07-26T18:01:31.372Z,32.40
2018-07-26T18:04:00.448Z,32.40
2018-07-26T18:06:29.525Z,32.20
2018-07-26T18:08:58.500Z,32.20
2018-07-26T18:11:27.525Z,32.00
2018-07-26T18:13:56.613Z,32.00
2018-07-26T18:16:25.725Z,31.80
2018-07-26T18:18:54.825Z,31.80
2018-07-26T18:21:23.935Z,31.70
2018-07-26T18:23:52.980Z,31.60
2018-07-26T18:26:21.933Z,31.60
2018-07-26T18:28:50.889Z,31.50
2018-07-26T18:31:20.081Z,31.50
2018-07-26T18:33:49.018Z,31.40
2018-07-26T18:36:18.050Z,31.40
2018-07-26T18:38:47.135Z,31.30
2018-07-26T18:41:16.269Z,31.30
2018-07-26T18:43:45.387Z,31.20
2018-07-26T18:46:14.288Z,31.10
2018-07-26T18:48:43.261Z,31.10
2018-07-26T18:51:12.209Z,31.00
2018-07-26T18:53:41.308Z,30.90
2018-07-26T18:56:10.423Z,30.80
2018-07-26T18:58:42.579Z,30.70
2018-07-26T19:01:11.226Z,30.70
2018-07-26T19:03:40.401Z,30.50
2018-07-26T19:06:09.297Z,30.50
2018-07-26T19:08:38.306Z,30.40
2018-07-26T19:11:07.273Z,30.20
2018-07-26T19:13:36.308Z,30.20
2018-07-26T19:16:06.187Z,30.10
2018-07-26T19:18:35.321Z,29.90
2018-07-26T19:21:04.363Z,29.90
2018-07-26T19:23:33.336Z,29.80
2018-07-26T19:26:02.449Z,29.70
2018-07-26T19:28:31.529Z,29.70
2018-07-26T19:31:00.594Z,29.60
2018-07-26T19:33:30.279Z,29.50
2018-07-26T19:35:59.365Z,29.40
2018-07-26T19:38:28.366Z,29.30
2018-07-26T19:40:57.371Z,29.20
2018-07-26T19:43:26.385Z,29.10
2018-07-26T19:45:55.624Z,29.10
2018-07-26T19:48:24.591Z,29.00
2018-07-26T19:50:53.773Z,28.90
2018-07-26T19:53:22.904Z,28.80
2018-07-26T19:55:58.285Z,28.80
2018-07-26T19:58:27.388Z,28.70
2018-07-26T20:00:56.466Z,28.60
2018-07-26T20:03:25.585Z,28.50
2018-07-26T20:05:54.671Z,28.50
2018-07-26T20:08:24.366Z,28.40
2018-07-26T20:10:53.507Z,28.40
2018-07-26T20:13:22.471Z,28.30
2018-07-26T20:15:51.734Z,28.20
2018-07-26T20:18:20.834Z,28.20
2018-07-26T20:20:49.836Z,28.10
2018-07-26T20:23:19.014Z,28.10
2018-07-26T20:25:47.963Z,28.00
2018-07-26T20:28:17.412Z,27.90
2018-07-26T20:30:46.396Z,27.80
2018-07-26T20:33:16.220Z,27.80
2018-07-26T20:35:45.215Z,27.70
2018-07-26T20:38:14.372Z,27.70
2018-07-26T20:40:43.449Z,27.60
2018-07-26T20:43:12.570Z,27.50
2018-07-26T20:45:41.621Z,27.40
2018-07-26T20:48:10.737Z,27.30
2018-07-26T20:50:39.832Z,27.20
2018-07-26T20:53:08.823Z,27.10
2018-07-26T20:55:37.750Z,27.10
2018-07-26T20:58:06.897Z,27.10
2018-07-26T21:00:35.963Z,27.10
2018-07-26T21:03:05.087Z,27.10
2018-07-26T21:05:34.126Z,27.10
2018-07-26T21:08:03.300Z,27.10
2018-07-26T21:10:32.264Z,27.10
2018-07-26T21:13:01.252Z,27.10
2018-07-26T21:15:30.203Z,27.00
2018-07-26T21:17:59.325Z,26.90
2018-07-26T21:20:28.349Z,26.80
2018-07-26T21:22:57.428Z,26.80
2018-07-26T21:25:26.517Z,26.70
2018-07-26T21:27:55.596Z,26.70
2018-07-26T21:30:24.608Z,26.70
2018-07-26T21:32:53.609Z,26.60
2018-07-26T21:35:22.753Z,26.60
2018-07-26T21:37:51.772Z,26.50
2018-07-26T21:40:20.765Z,26.40
2018-07-26T21:42:49.796Z,26.40
2018-07-26T21:45:18.918Z,26.30
2018-07-26T21:47:47.951Z,26.20
2018-07-26T21:50:17.077Z,26.20
2018-07-26T21:52:46.154Z,26.10
2018-07-26T21:55:15.205Z,26.10
2018-07-26T21:57:44.343Z,26.00
2018-07-26T22:00:13.507Z,26.00
2018-07-26T22:02:42.541Z,25.90
2018-07-26T22:05:11.529Z,25.90
2018-07-26T22:07:40.721Z,25.90
2018-07-26T22:10:09.831Z,25.90
2018-07-26T22:12:38.909Z,25.80
2018-07-26T22:15:08.005Z,25.70
2018-07-26T22:17:37.254Z,25.60
2018-07-26T22:20:06.525Z,25.50
2018-07-26T22:22:36.389Z,25.50
2018-07-26T22:25:05.648Z,25.40
2018-07-26T22:27:34.590Z,25.30
2018-07-26T22:30:04.052Z,25.20
2018-07-26T22:32:32.998Z,25.10
2018-07-26T22:35:01.995Z,25.00
2018-07-26T22:37:30.893Z,24.90
2018-07-26T22:39:59.972Z,24.90
2018-07-26T22:42:28.953Z,24.80
2018-07-26T22:44:57.914Z,24.70
2018-07-26T22:49:55.778Z,24.70
2018-07-26T22:52:24.795Z,24.60
2018-07-26T22:54:53.764Z,24.60
2018-07-26T22:57:22.743Z,24.50
2018-07-26T22:59:51.918Z,24.50
2018-07-26T23:02:21.028Z,24.40
2018-07-26T23:04:50.160Z,24.40
2018-07-26T23:07:19.194Z,24.30
2018-07-26T23:09:48.308Z,24.30
2018-07-26T23:12:17.369Z,24.30
2018-07-26T23:14:46.518Z,24.20
2018-07-26T23:17:15.531Z,24.10
2018-07-26T23:19:44.738Z,24.10
2018-07-26T23:22:13.725Z,24.10
2018-07-26T23:24:42.901Z,24.00
2018-07-26T23:27:11.838Z,23.90
2018-07-26T23:29:40.848Z,23.90
2018-07-26T23:32:12.684Z,24.00
2018-07-26T23:34:41.658Z,24.00
2018-07-26T23:37:10.779Z,23.90
2018-07-26T23:39:39.897Z,23.90
2018-07-26T23:42:08.822Z,23.90
2018-07-26T23:44:37.860Z,23.90
2018-07-26T23:47:07.616Z,23.90
2018-07-26T23:49:36.574Z,23.80
2018-07-26T23:52:05.568Z,23.80
2018-07-26T23:54:34.662Z,23.80
2018-07-26T23:57:03.744Z,23.70
2018-07-26T23:59:32.710Z,23.60
